sensor_id;sensor_type;location;lat;lon;timestamp;P1;durP1;ratioP1;P2;durP2;ratioP2
12780;SDS011;6454;43.304;24.344;2024-01-30T00:01:40;11.52;;;4.32;;
12780;SDS011;6454;43.304;24.344;2024-01-30T00:04:06;11.82;;;5.43;;
12780;SDS011;6454;43.304;24.344;2024-01-30T00:06:31;15.15;;;6.35;;
12780;SDS011;6454;43.304;24.344;2024-01-30T00:11:22;10.73;;;5.70;;
12780;SDS011;6454;43.304;24.344;2024-01-30T00:13:50;13.27;;;6.50;;
12780;SDS011;6454;43.304;24.344;2024-01-30T00:18:49;12.13;;;5.53;;
12780;SDS011;6454;43.304;24.344;2024-01-30T00:21:15;13.13;;;6.03;;
12780;SDS011;6454;43.304;24.344;2024-01-30T00:23:41;11.60;;;5.95;;
12780;SDS011;6454;43.304;24.344;2024-01-30T00:26:06;13.25;;;5.80;;
12780;SDS011;6454;43.304;24.344;2024-01-30T00:28:31;11.60;;;5.28;;
12780;SDS011;6454;43.304;24.344;2024-01-30T00:33:22;10.57;;;5.90;;
12780;SDS011;6454;43.304;24.344;2024-01-30T00:35:48;11.13;;;5.90;;
12780;SDS011;6454;43.304;24.344;2024-01-30T00:40:38;12.03;;;5.53;;
12780;SDS011;6454;43.304;24.344;2024-01-30T00:43:04;10.20;;;5.68;;
12780;SDS011;6454;43.304;24.344;2024-01-30T00:47:54;13.77;;;6.03;;
12780;SDS011;6454;43.304;24.344;2024-01-30T00:50:20;10.48;;;5.20;;
12780;SDS011;6454;43.304;24.344;2024-01-30T00:55:11;13.40;;;5.90;;
12780;SDS011;6454;43.304;24.344;2024-01-30T00:57:36;11.57;;;5.57;;
12780;SDS011;6454;43.304;24.344;2024-01-30T01:02:28;11.93;;;5.40;;
12780;SDS011;6454;43.304;24.344;2024-01-30T01:07:19;13.83;;;5.83;;
12780;SDS011;6454;43.304;24.344;2024-01-30T01:12:09;13.07;;;5.60;;
12780;SDS011;6454;43.304;24.344;2024-01-30T01:14:35;13.10;;;6.00;;
12780;SDS011;6454;43.304;24.344;2024-01-30T01:19:26;13.63;;;6.50;;
12780;SDS011;6454;43.304;24.344;2024-01-30T01:24:18;16.58;;;6.60;;
12780;SDS011;6454;43.304;24.344;2024-01-30T01:26:43;15.75;;;7.13;;
12780;SDS011;6454;43.304;24.344;2024-01-30T01:31:37;12.63;;;6.38;;
12780;SDS011;6454;43.304;24.344;2024-01-30T01:34:12;16.33;;;6.70;;
12780;SDS011;6454;43.304;24.344;2024-01-30T01:36:38;12.27;;;6.57;;
12780;SDS011;6454;43.304;24.344;2024-01-30T01:39:04;13.25;;;7.10;;
12780;SDS011;6454;43.304;24.344;2024-01-30T01:43:56;13.85;;;6.78;;
12780;SDS011;6454;43.304;24.344;2024-01-30T01:48:47;18.77;;;8.90;;
12780;SDS011;6454;43.304;24.344;2024-01-30T01:53:39;23.27;;;10.43;;
12780;SDS011;6454;43.304;24.344;2024-01-30T01:58:31;17.08;;;9.73;;
12780;SDS011;6454;43.304;24.344;2024-01-30T02:03:23;21.33;;;10.88;;
12780;SDS011;6454;43.304;24.344;2024-01-30T02:08:15;19.48;;;11.63;;
12780;SDS011;6454;43.304;24.344;2024-01-30T02:13:06;25.00;;;12.13;;
12780;SDS011;6454;43.304;24.344;2024-01-30T02:17:57;19.73;;;9.87;;
12780;SDS011;6454;43.304;24.344;2024-01-30T02:22:49;16.30;;;9.48;;
12780;SDS011;6454;43.304;24.344;2024-01-30T02:25:19;17.02;;;9.40;;
12780;SDS011;6454;43.304;24.344;2024-01-30T02:30:10;18.90;;;10.20;;
12780;SDS011;6454;43.304;24.344;2024-01-30T02:32:36;21.15;;;11.18;;
12780;SDS011;6454;43.304;24.344;2024-01-30T02:37:27;17.88;;;9.15;;
12780;SDS011;6454;43.304;24.344;2024-01-30T02:42:18;17.47;;;8.67;;
12780;SDS011;6454;43.304;24.344;2024-01-30T02:44:43;19.67;;;10.10;;
12780;SDS011;6454;43.304;24.344;2024-01-30T02:49:34;16.43;;;8.13;;
12780;SDS011;6454;43.304;24.344;2024-01-30T02:51:59;22.90;;;10.18;;
12780;SDS011;6454;43.304;24.344;2024-01-30T02:56:50;18.33;;;8.53;;
12780;SDS011;6454;43.304;24.344;2024-01-30T03:01:44;26.07;;;11.80;;
12780;SDS011;6454;43.304;24.344;2024-01-30T03:04:10;34.85;;;15.40;;
12780;SDS011;6454;43.304;24.344;2024-01-30T03:06:36;28.80;;;14.48;;
12780;SDS011;6454;43.304;24.344;2024-01-30T03:09:02;24.92;;;12.25;;
12780;SDS011;6454;43.304;24.344;2024-01-30T03:13:53;18.25;;;8.85;;
12780;SDS011;6454;43.304;24.344;2024-01-30T03:18:44;16.53;;;8.23;;
12780;SDS011;6454;43.304;24.344;2024-01-30T03:21:09;23.45;;;9.82;;
12780;SDS011;6454;43.304;24.344;2024-01-30T03:26:00;16.88;;;8.32;;
12780;SDS011;6454;43.304;24.344;2024-01-30T03:30:51;20.20;;;7.93;;
12780;SDS011;6454;43.304;24.344;2024-01-30T03:33:16;19.70;;;7.95;;
12780;SDS011;6454;43.304;24.344;2024-01-30T03:38:07;16.05;;;8.20;;
12780;SDS011;6454;43.304;24.344;2024-01-30T03:42:58;18.50;;;8.23;;
12780;SDS011;6454;43.304;24.344;2024-01-30T03:47:49;16.97;;;8.27;;
12780;SDS011;6454;43.304;24.344;2024-01-30T03:50:14;15.75;;;8.57;;
12780;SDS011;6454;43.304;24.344;2024-01-30T03:55:05;18.70;;;9.00;;
12780;SDS011;6454;43.304;24.344;2024-01-30T03:59:56;15.70;;;8.50;;
12780;SDS011;6454;43.304;24.344;2024-01-30T04:04:47;29.30;;;11.13;;
12780;SDS011;6454;43.304;24.344;2024-01-30T04:07:12;25.10;;;12.18;;
12780;SDS011;6454;43.304;24.344;2024-01-30T04:12:03;18.33;;;10.68;;
12780;SDS011;6454;43.304;24.344;2024-01-30T04:16:54;25.57;;;11.43;;
12780;SDS011;6454;43.304;24.344;2024-01-30T04:21:45;24.15;;;11.35;;
12780;SDS011;6454;43.304;24.344;2024-01-30T04:24:10;21.40;;;10.93;;
12780;SDS011;6454;43.304;24.344;2024-01-30T04:29:01;20.17;;;9.52;;
12780;SDS011;6454;43.304;24.344;2024-01-30T04:31:27;23.38;;;10.48;;
12780;SDS011;6454;43.304;24.344;2024-01-30T04:36:18;19.47;;;9.37;;
12780;SDS011;6454;43.304;24.344;2024-01-30T04:38:44;21.73;;;10.07;;
12780;SDS011;6454;43.304;24.344;2024-01-30T04:41:09;25.25;;;11.68;;
12780;SDS011;6454;43.304;24.344;2024-01-30T04:46:01;20.13;;;10.60;;
12780;SDS011;6454;43.304;24.344;2024-01-30T04:48:26;20.23;;;10.68;;
12780;SDS011;6454;43.304;24.344;2024-01-30T04:53:17;22.35;;;9.95;;
12780;SDS011;6454;43.304;24.344;2024-01-30T04:55:44;24.10;;;11.07;;
12780;SDS011;6454;43.304;24.344;2024-01-30T04:58:09;27.50;;;13.02;;
12780;SDS011;6454;43.304;24.344;2024-01-30T05:00:35;18.60;;;10.27;;
12780;SDS011;6454;43.304;24.344;2024-01-30T05:03:00;21.88;;;10.73;;
12780;SDS011;6454;43.304;24.344;2024-01-30T05:07:51;20.27;;;11.37;;
12780;SDS011;6454;43.304;24.344;2024-01-30T05:12:41;20.23;;;10.50;;
12780;SDS011;6454;43.304;24.344;2024-01-30T05:17:33;16.38;;;9.25;;
12780;SDS011;6454;43.304;24.344;2024-01-30T05:19:58;22.90;;;11.15;;
12780;SDS011;6454;43.304;24.344;2024-01-30T05:22:24;20.00;;;11.27;;
12780;SDS011;6454;43.304;24.344;2024-01-30T05:27:14;26.05;;;13.25;;
12780;SDS011;6454;43.304;24.344;2024-01-30T05:32:06;23.83;;;10.80;;
12780;SDS011;6454;43.304;24.344;2024-01-30T05:34:31;22.70;;;9.95;;
12780;SDS011;6454;43.304;24.344;2024-01-30T05:36:57;27.40;;;13.00;;
12780;SDS011;6454;43.304;24.344;2024-01-30T05:39:22;23.27;;;10.93;;
12780;SDS011;6454;43.304;24.344;2024-01-30T05:41:48;19.45;;;9.98;;
12780;SDS011;6454;43.304;24.344;2024-01-30T05:44:13;24.20;;;11.93;;
12780;SDS011;6454;43.304;24.344;2024-01-30T05:46:39;22.65;;;11.25;;
12780;SDS011;6454;43.304;24.344;2024-01-30T05:49:04;27.38;;;13.23;;
12780;SDS011;6454;43.304;24.344;2024-01-30T05:51:30;28.48;;;14.63;;
12780;SDS011;6454;43.304;24.344;2024-01-30T05:56:20;22.90;;;11.20;;
12780;SDS011;6454;43.304;24.344;2024-01-30T05:58:46;35.85;;;15.23;;
12780;SDS011;6454;43.304;24.344;2024-01-30T06:03:36;43.78;;;17.63;;
12780;SDS011;6454;43.304;24.344;2024-01-30T06:08:27;33.95;;;15.18;;
12780;SDS011;6454;43.304;24.344;2024-01-30T06:13:19;32.40;;;13.93;;
12780;SDS011;6454;43.304;24.344;2024-01-30T06:15:45;27.50;;;14.30;;
12780;SDS011;6454;43.304;24.344;2024-01-30T06:20:36;30.98;;;15.63;;
12780;SDS011;6454;43.304;24.344;2024-01-30T06:23:01;29.70;;;14.77;;
12780;SDS011;6454;43.304;24.344;2024-01-30T06:25:27;33.75;;;18.13;;
12780;SDS011;6454;43.304;24.344;2024-01-30T06:30:18;28.57;;;15.53;;
12780;SDS011;6454;43.304;24.344;2024-01-30T06:32:43;33.85;;;16.08;;
12780;SDS011;6454;43.304;24.344;2024-01-30T06:35:09;35.17;;;16.42;;
12780;SDS011;6454;43.304;24.344;2024-01-30T06:37:35;33.88;;;15.05;;
12780;SDS011;6454;43.304;24.344;2024-01-30T06:42:26;31.43;;;12.47;;
12780;SDS011;6454;43.304;24.344;2024-01-30T06:47:17;25.20;;;12.25;;
12780;SDS011;6454;43.304;24.344;2024-01-30T06:49:42;24.98;;;13.05;;
12780;SDS011;6454;43.304;24.344;2024-01-30T06:52:09;30.05;;;13.48;;
12780;SDS011;6454;43.304;24.344;2024-01-30T06:54:34;25.33;;;12.52;;
12780;SDS011;6454;43.304;24.344;2024-01-30T06:59:25;24.87;;;13.07;;
12780;SDS011;6454;43.304;24.344;2024-01-30T07:04:16;22.77;;;11.30;;
12780;SDS011;6454;43.304;24.344;2024-01-30T07:09:07;19.60;;;10.43;;
12780;SDS011;6454;43.304;24.344;2024-01-30T07:11:36;25.70;;;10.82;;
12780;SDS011;6454;43.304;24.344;2024-01-30T07:16:29;24.85;;;10.77;;
12780;SDS011;6454;43.304;24.344;2024-01-30T07:21:21;23.27;;;11.48;;
12780;SDS011;6454;43.304;24.344;2024-01-30T07:23:52;23.33;;;11.60;;
12780;SDS011;6454;43.304;24.344;2024-01-30T07:26:18;28.85;;;13.13;;
12780;SDS011;6454;43.304;24.344;2024-01-30T07:31:09;19.95;;;9.82;;
12780;SDS011;6454;43.304;24.344;2024-01-30T07:36:01;27.13;;;10.73;;
12780;SDS011;6454;43.304;24.344;2024-01-30T07:40:52;18.73;;;8.63;;
12780;SDS011;6454;43.304;24.344;2024-01-30T07:45:43;15.37;;;8.20;;
12780;SDS011;6454;43.304;24.344;2024-01-30T07:50:33;19.15;;;8.27;;
12780;SDS011;6454;43.304;24.344;2024-01-30T07:55:25;22.67;;;8.98;;
12780;SDS011;6454;43.304;24.344;2024-01-30T07:57:53;20.13;;;8.82;;
12780;SDS011;6454;43.304;24.344;2024-01-30T08:00:22;24.77;;;10.00;;
12780;SDS011;6454;43.304;24.344;2024-01-30T08:05:13;24.17;;;9.50;;
12780;SDS011;6454;43.304;24.344;2024-01-30T08:07:40;22.30;;;10.45;;
12780;SDS011;6454;43.304;24.344;2024-01-30T08:10:07;19.02;;;8.95;;
12780;SDS011;6454;43.304;24.344;2024-01-30T08:14:58;15.60;;;7.77;;
12780;SDS011;6454;43.304;24.344;2024-01-30T08:17:23;13.80;;;6.93;;
12780;SDS011;6454;43.304;24.344;2024-01-30T08:19:49;18.92;;;8.23;;
12780;SDS011;6454;43.304;24.344;2024-01-30T08:22:14;14.52;;;7.85;;
12780;SDS011;6454;43.304;24.344;2024-01-30T08:27:06;22.85;;;8.77;;
12780;SDS011;6454;43.304;24.344;2024-01-30T08:29:34;15.60;;;8.30;;
12780;SDS011;6454;43.304;24.344;2024-01-30T08:34:25;11.53;;;6.63;;
12780;SDS011;6454;43.304;24.344;2024-01-30T08:36:51;16.13;;;7.32;;
12780;SDS011;6454;43.304;24.344;2024-01-30T08:39:16;16.40;;;7.65;;
12780;SDS011;6454;43.304;24.344;2024-01-30T08:41:41;15.68;;;7.95;;
12780;SDS011;6454;43.304;24.344;2024-01-30T08:46:32;15.87;;;7.33;;
12780;SDS011;6454;43.304;24.344;2024-01-30T08:48:59;18.92;;;8.05;;
12780;SDS011;6454;43.304;24.344;2024-01-30T08:51:25;12.60;;;6.85;;
12780;SDS011;6454;43.304;24.344;2024-01-30T08:53:51;14.32;;;7.80;;
12780;SDS011;6454;43.304;24.344;2024-01-30T08:56:17;16.45;;;8.15;;
12780;SDS011;6454;43.304;24.344;2024-01-30T08:58:43;13.80;;;7.63;;
12780;SDS011;6454;43.304;24.344;2024-01-30T09:03:34;14.40;;;7.13;;
12780;SDS011;6454;43.304;24.344;2024-01-30T09:08:25;13.73;;;6.70;;
12780;SDS011;6454;43.304;24.344;2024-01-30T09:13:15;16.33;;;6.90;;
12780;SDS011;6454;43.304;24.344;2024-01-30T09:18:07;12.27;;;6.30;;
12780;SDS011;6454;43.304;24.344;2024-01-30T09:22:58;13.77;;;6.75;;
12780;SDS011;6454;43.304;24.344;2024-01-30T09:27:49;13.90;;;6.70;;
12780;SDS011;6454;43.304;24.344;2024-01-30T09:30:15;16.08;;;6.70;;
12780;SDS011;6454;43.304;24.344;2024-01-30T09:35:08;11.52;;;5.80;;
12780;SDS011;6454;43.304;24.344;2024-01-30T09:39:59;13.82;;;5.88;;
12780;SDS011;6454;43.304;24.344;2024-01-30T09:44:50;13.70;;;7.05;;
12780;SDS011;6454;43.304;24.344;2024-01-30T09:47:17;15.65;;;6.60;;
12780;SDS011;6454;43.304;24.344;2024-01-30T09:52:09;15.52;;;7.45;;
12780;SDS011;6454;43.304;24.344;2024-01-30T09:54:35;17.05;;;8.20;;
12780;SDS011;6454;43.304;24.344;2024-01-30T09:57:03;15.15;;;6.82;;
12780;SDS011;6454;43.304;24.344;2024-01-30T09:59:29;14.20;;;7.43;;
12780;SDS011;6454;43.304;24.344;2024-01-30T10:01:54;15.50;;;7.63;;
12780;SDS011;6454;43.304;24.344;2024-01-30T10:04:21;13.43;;;6.95;;
12780;SDS011;6454;43.304;24.344;2024-01-30T10:06:47;12.60;;;7.10;;
12780;SDS011;6454;43.304;24.344;2024-01-30T10:09:12;17.05;;;8.00;;
12780;SDS011;6454;43.304;24.344;2024-01-30T10:11:38;16.48;;;7.43;;
12780;SDS011;6454;43.304;24.344;2024-01-30T10:16:29;15.27;;;7.18;;
12780;SDS011;6454;43.304;24.344;2024-01-30T10:18:55;14.35;;;7.47;;
12780;SDS011;6454;43.304;24.344;2024-01-30T10:21:20;14.77;;;7.30;;
12780;SDS011;6454;43.304;24.344;2024-01-30T10:23:46;14.50;;;7.05;;
12780;SDS011;6454;43.304;24.344;2024-01-30T10:26:12;17.77;;;8.15;;
12780;SDS011;6454;43.304;24.344;2024-01-30T10:28:37;16.85;;;8.27;;
12780;SDS011;6454;43.304;24.344;2024-01-30T10:31:03;14.70;;;7.60;;
12780;SDS011;6454;43.304;24.344;2024-01-30T10:33:29;14.43;;;7.13;;
12780;SDS011;6454;43.304;24.344;2024-01-30T10:35:56;13.38;;;7.10;;
12780;SDS011;6454;43.304;24.344;2024-01-30T10:38:28;13.75;;;6.82;;
12780;SDS011;6454;43.304;24.344;2024-01-30T10:40:56;14.15;;;7.57;;
12780;SDS011;6454;43.304;24.344;2024-01-30T10:43:29;13.05;;;6.63;;
12780;SDS011;6454;43.304;24.344;2024-01-30T10:45:59;12.60;;;6.68;;
12780;SDS011;6454;43.304;24.344;2024-01-30T10:48:34;12.60;;;6.95;;
12780;SDS011;6454;43.304;24.344;2024-01-30T10:51:07;15.07;;;7.63;;
12780;SDS011;6454;43.304;24.344;2024-01-30T10:53:34;14.45;;;7.25;;
12780;SDS011;6454;43.304;24.344;2024-01-30T10:56:00;14.70;;;7.63;;
12780;SDS011;6454;43.304;24.344;2024-01-30T10:58:27;14.93;;;7.43;;
12780;SDS011;6454;43.304;24.344;2024-01-30T11:00:53;13.43;;;6.97;;
12780;SDS011;6454;43.304;24.344;2024-01-30T11:03:20;15.23;;;7.90;;
12780;SDS011;6454;43.304;24.344;2024-01-30T11:05:51;14.70;;;8.27;;
12780;SDS011;6454;43.304;24.344;2024-01-30T11:08:26;11.55;;;6.10;;
12780;SDS011;6454;43.304;24.344;2024-01-30T11:10:57;16.10;;;7.75;;
12780;SDS011;6454;43.304;24.344;2024-01-30T11:13:27;16.92;;;8.20;;
12780;SDS011;6454;43.304;24.344;2024-01-30T11:15:54;15.40;;;7.72;;
12780;SDS011;6454;43.304;24.344;2024-01-30T11:18:26;17.15;;;7.82;;
12780;SDS011;6454;43.304;24.344;2024-01-30T11:20:58;14.82;;;7.20;;
12780;SDS011;6454;43.304;24.344;2024-01-30T11:23:30;13.75;;;6.60;;
12780;SDS011;6454;43.304;24.344;2024-01-30T11:25:58;12.15;;;5.95;;
12780;SDS011;6454;43.304;24.344;2024-01-30T11:28:23;11.93;;;5.70;;
12780;SDS011;6454;43.304;24.344;2024-01-30T11:30:49;11.95;;;5.80;;
12780;SDS011;6454;43.304;24.344;2024-01-30T11:33:30;11.00;;;5.10;;
12780;SDS011;6454;43.304;24.344;2024-01-30T11:35:59;12.25;;;6.57;;
12780;SDS011;6454;43.304;24.344;2024-01-30T11:38:26;12.50;;;6.50;;
12780;SDS011;6454;43.304;24.344;2024-01-30T11:40:53;15.10;;;7.07;;
12780;SDS011;6454;43.304;24.344;2024-01-30T11:43:20;15.98;;;6.55;;
12780;SDS011;6454;43.304;24.344;2024-01-30T11:45:46;13.43;;;6.32;;
12780;SDS011;6454;43.304;24.344;2024-01-30T11:48:12;24.08;;;10.10;;
12780;SDS011;6454;43.304;24.344;2024-01-30T11:50:38;17.55;;;7.30;;
12780;SDS011;6454;43.304;24.344;2024-01-30T11:53:07;15.02;;;6.80;;
12780;SDS011;6454;43.304;24.344;2024-01-30T11:55:33;12.75;;;6.45;;
12780;SDS011;6454;43.304;24.344;2024-01-30T11:58:01;10.65;;;5.85;;
12780;SDS011;6454;43.304;24.344;2024-01-30T12:00:29;9.75;;;5.50;;
12780;SDS011;6454;43.304;24.344;2024-01-30T12:02:56;12.02;;;5.40;;
12780;SDS011;6454;43.304;24.344;2024-01-30T12:05:25;9.55;;;5.35;;
12780;SDS011;6454;43.304;24.344;2024-01-30T12:07:50;9.75;;;5.07;;
12780;SDS011;6454;43.304;24.344;2024-01-30T12:10:16;10.77;;;5.88;;
12780;SDS011;6454;43.304;24.344;2024-01-30T12:12:44;10.18;;;5.78;;
12780;SDS011;6454;43.304;24.344;2024-01-30T12:15:14;12.20;;;6.05;;
12780;SDS011;6454;43.304;24.344;2024-01-30T12:17:40;12.00;;;5.28;;
12780;SDS011;6454;43.304;24.344;2024-01-30T12:20:07;16.48;;;6.68;;
12780;SDS011;6454;43.304;24.344;2024-01-30T12:22:37;6.80;;;4.30;;
12780;SDS011;6454;43.304;24.344;2024-01-30T12:25:07;10.15;;;4.78;;
12780;SDS011;6454;43.304;24.344;2024-01-30T12:27:37;11.50;;;6.85;;
12780;SDS011;6454;43.304;24.344;2024-01-30T12:30:06;8.95;;;4.80;;
12780;SDS011;6454;43.304;24.344;2024-01-30T12:32:36;8.77;;;5.05;;
12780;SDS011;6454;43.304;24.344;2024-01-30T12:35:02;8.80;;;4.40;;
12780;SDS011;6454;43.304;24.344;2024-01-30T12:37:29;7.10;;;4.57;;
12780;SDS011;6454;43.304;24.344;2024-01-30T12:39:55;14.90;;;6.95;;
12780;SDS011;6454;43.304;24.344;2024-01-30T12:42:22;19.48;;;8.45;;
12780;SDS011;6454;43.304;24.344;2024-01-30T12:44:48;15.07;;;7.03;;
12780;SDS011;6454;43.304;24.344;2024-01-30T12:47:14;13.30;;;6.57;;
12780;SDS011;6454;43.304;24.344;2024-01-30T12:49:41;13.45;;;6.95;;
12780;SDS011;6454;43.304;24.344;2024-01-30T12:52:08;13.40;;;6.93;;
12780;SDS011;6454;43.304;24.344;2024-01-30T12:54:34;15.00;;;6.53;;
12780;SDS011;6454;43.304;24.344;2024-01-30T12:56:59;11.35;;;6.05;;
12780;SDS011;6454;43.304;24.344;2024-01-30T12:59:25;8.07;;;5.07;;
12780;SDS011;6454;43.304;24.344;2024-01-30T13:01:50;11.63;;;6.32;;
12780;SDS011;6454;43.304;24.344;2024-01-30T13:04:16;11.27;;;5.50;;
12780;SDS011;6454;43.304;24.344;2024-01-30T13:06:42;11.52;;;6.32;;
12780;SDS011;6454;43.304;24.344;2024-01-30T13:09:07;10.50;;;5.28;;
12780;SDS011;6454;43.304;24.344;2024-01-30T13:11:32;10.95;;;6.28;;
12780;SDS011;6454;43.304;24.344;2024-01-30T13:13:59;11.38;;;6.00;;
12780;SDS011;6454;43.304;24.344;2024-01-30T13:16:25;10.02;;;5.28;;
12780;SDS011;6454;43.304;24.344;2024-01-30T13:18:50;11.27;;;5.95;;
12780;SDS011;6454;43.304;24.344;2024-01-30T13:21:16;11.60;;;5.88;;
12780;SDS011;6454;43.304;24.344;2024-01-30T13:26:08;8.68;;;4.65;;
12780;SDS011;6454;43.304;24.344;2024-01-30T13:30:58;10.05;;;5.15;;
12780;SDS011;6454;43.304;24.344;2024-01-30T13:33:24;12.35;;;5.50;;
12780;SDS011;6454;43.304;24.344;2024-01-30T13:35:50;8.65;;;4.82;;
12780;SDS011;6454;43.304;24.344;2024-01-30T13:38:15;9.73;;;5.40;;
12780;SDS011;6454;43.304;24.344;2024-01-30T13:40:41;15.15;;;7.57;;
12780;SDS011;6454;43.304;24.344;2024-01-30T13:43:06;13.23;;;6.13;;
12780;SDS011;6454;43.304;24.344;2024-01-30T13:45:32;10.02;;;5.40;;
12780;SDS011;6454;43.304;24.344;2024-01-30T13:47:58;11.68;;;5.05;;
12780;SDS011;6454;43.304;24.344;2024-01-30T13:50:24;12.02;;;5.40;;
12780;SDS011;6454;43.304;24.344;2024-01-30T13:52:49;16.63;;;8.57;;
12780;SDS011;6454;43.304;24.344;2024-01-30T13:55:15;11.52;;;5.47;;
12780;SDS011;6454;43.304;24.344;2024-01-30T13:57:40;9.05;;;4.95;;
12780;SDS011;6454;43.304;24.344;2024-01-30T14:00:07;10.68;;;4.70;;
12780;SDS011;6454;43.304;24.344;2024-01-30T14:02:35;9.45;;;4.88;;
12780;SDS011;6454;43.304;24.344;2024-01-30T14:05:01;9.88;;;5.03;;
12780;SDS011;6454;43.304;24.344;2024-01-30T14:07:26;9.10;;;5.10;;
12780;SDS011;6454;43.304;24.344;2024-01-30T14:09:52;8.93;;;5.97;;
12780;SDS011;6454;43.304;24.344;2024-01-30T14:14:43;7.45;;;4.30;;
12780;SDS011;6454;43.304;24.344;2024-01-30T14:17:08;6.95;;;4.07;;
12780;SDS011;6454;43.304;24.344;2024-01-30T14:19:34;6.72;;;4.05;;
12780;SDS011;6454;43.304;24.344;2024-01-30T14:22:00;7.50;;;4.05;;
12780;SDS011;6454;43.304;24.344;2024-01-30T14:24:26;7.32;;;4.30;;
12780;SDS011;6454;43.304;24.344;2024-01-30T14:26:52;10.68;;;4.63;;
12780;SDS011;6454;43.304;24.344;2024-01-30T14:29:18;7.57;;;4.65;;
12780;SDS011;6454;43.304;24.344;2024-01-30T14:31:43;7.18;;;4.75;;
12780;SDS011;6454;43.304;24.344;2024-01-30T14:34:12;10.88;;;5.70;;
12780;SDS011;6454;43.304;24.344;2024-01-30T14:36:38;9.88;;;5.45;;
12780;SDS011;6454;43.304;24.344;2024-01-30T14:39:03;13.65;;;6.32;;
12780;SDS011;6454;43.304;24.344;2024-01-30T14:41:29;10.95;;;6.40;;
12780;SDS011;6454;43.304;24.344;2024-01-30T14:43:55;12.63;;;6.18;;
12780;SDS011;6454;43.304;24.344;2024-01-30T14:46:21;9.10;;;5.43;;
12780;SDS011;6454;43.304;24.344;2024-01-30T14:48:47;9.48;;;4.97;;
12780;SDS011;6454;43.304;24.344;2024-01-30T14:51:12;6.93;;;4.53;;
12780;SDS011;6454;43.304;24.344;2024-01-30T14:53:38;8.90;;;5.63;;
12780;SDS011;6454;43.304;24.344;2024-01-30T14:56:04;8.25;;;5.25;;
12780;SDS011;6454;43.304;24.344;2024-01-30T14:58:30;9.05;;;5.40;;
12780;SDS011;6454;43.304;24.344;2024-01-30T15:00:56;18.77;;;7.93;;
12780;SDS011;6454;43.304;24.344;2024-01-30T15:03:21;19.10;;;8.70;;
12780;SDS011;6454;43.304;24.344;2024-01-30T15:05:47;15.52;;;8.93;;
12780;SDS011;6454;43.304;24.344;2024-01-30T15:08:12;14.80;;;8.52;;
12780;SDS011;6454;43.304;24.344;2024-01-30T15:10:38;11.43;;;7.30;;
12780;SDS011;6454;43.304;24.344;2024-01-30T15:13:03;16.33;;;7.78;;
12780;SDS011;6454;43.304;24.344;2024-01-30T15:15:29;18.52;;;9.00;;
12780;SDS011;6454;43.304;24.344;2024-01-30T15:17:56;15.93;;;8.35;;
12780;SDS011;6454;43.304;24.344;2024-01-30T15:20:23;20.80;;;10.25;;
12780;SDS011;6454;43.304;24.344;2024-01-30T15:22:49;22.63;;;12.52;;
12780;SDS011;6454;43.304;24.344;2024-01-30T15:25:14;24.63;;;12.68;;
12780;SDS011;6454;43.304;24.344;2024-01-30T15:27:40;24.42;;;12.32;;
12780;SDS011;6454;43.304;24.344;2024-01-30T15:30:06;18.85;;;10.07;;
12780;SDS011;6454;43.304;24.344;2024-01-30T15:32:32;15.10;;;8.70;;
12780;SDS011;6454;43.304;24.344;2024-01-30T15:34:57;11.27;;;7.03;;
12780;SDS011;6454;43.304;24.344;2024-01-30T15:37:28;13.68;;;6.38;;
12780;SDS011;6454;43.304;24.344;2024-01-30T15:39:53;11.30;;;5.90;;
12780;SDS011;6454;43.304;24.344;2024-01-30T15:42:19;14.75;;;6.47;;
12780;SDS011;6454;43.304;24.344;2024-01-30T15:44:45;13.55;;;6.47;;
12780;SDS011;6454;43.304;24.344;2024-01-30T15:47:10;12.55;;;6.80;;
12780;SDS011;6454;43.304;24.344;2024-01-30T15:49:36;12.18;;;7.00;;
12780;SDS011;6454;43.304;24.344;2024-01-30T15:52:01;10.82;;;5.93;;
12780;SDS011;6454;43.304;24.344;2024-01-30T15:54:27;12.32;;;6.13;;
12780;SDS011;6454;43.304;24.344;2024-01-30T15:56:52;10.82;;;6.20;;
12780;SDS011;6454;43.304;24.344;2024-01-30T15:59:18;11.13;;;5.93;;
12780;SDS011;6454;43.304;24.344;2024-01-30T16:01:43;13.70;;;5.97;;
12780;SDS011;6454;43.304;24.344;2024-01-30T16:04:14;11.82;;;6.38;;
12780;SDS011;6454;43.304;24.344;2024-01-30T16:06:40;17.25;;;7.72;;
12780;SDS011;6454;43.304;24.344;2024-01-30T16:09:07;21.70;;;9.13;;
12780;SDS011;6454;43.304;24.344;2024-01-30T16:11:32;31.77;;;13.30;;
12780;SDS011;6454;43.304;24.344;2024-01-30T16:14:01;32.72;;;13.38;;
12780;SDS011;6454;43.304;24.344;2024-01-30T16:16:27;28.00;;;11.73;;
12780;SDS011;6454;43.304;24.344;2024-01-30T16:18:52;19.98;;;10.63;;
12780;SDS011;6454;43.304;24.344;2024-01-30T16:21:19;18.02;;;8.48;;
12780;SDS011;6454;43.304;24.344;2024-01-30T16:23:45;15.45;;;7.95;;
12780;SDS011;6454;43.304;24.344;2024-01-30T16:26:10;15.98;;;7.93;;
12780;SDS011;6454;43.304;24.344;2024-01-30T16:28:36;17.33;;;9.13;;
12780;SDS011;6454;43.304;24.344;2024-01-30T16:31:02;27.35;;;12.32;;
12780;SDS011;6454;43.304;24.344;2024-01-30T16:33:29;17.80;;;8.68;;
12780;SDS011;6454;43.304;24.344;2024-01-30T16:35:54;21.45;;;10.20;;
12780;SDS011;6454;43.304;24.344;2024-01-30T16:38:20;24.35;;;10.13;;
12780;SDS011;6454;43.304;24.344;2024-01-30T16:40:46;19.58;;;10.55;;
12780;SDS011;6454;43.304;24.344;2024-01-30T16:43:11;20.65;;;10.40;;
12780;SDS011;6454;43.304;24.344;2024-01-30T16:45:37;22.65;;;10.65;;
12780;SDS011;6454;43.304;24.344;2024-01-30T16:48:03;27.13;;;11.73;;
12780;SDS011;6454;43.304;24.344;2024-01-30T16:50:29;17.92;;;10.25;;
12780;SDS011;6454;43.304;24.344;2024-01-30T16:52:54;14.05;;;8.10;;
12780;SDS011;6454;43.304;24.344;2024-01-30T16:55:20;13.98;;;7.28;;
12780;SDS011;6454;43.304;24.344;2024-01-30T16:57:47;17.92;;;8.68;;
12780;SDS011;6454;43.304;24.344;2024-01-30T17:00:13;16.67;;;8.75;;
12780;SDS011;6454;43.304;24.344;2024-01-30T17:02:40;18.40;;;9.13;;
12780;SDS011;6454;43.304;24.344;2024-01-30T17:05:05;19.88;;;9.75;;
12780;SDS011;6454;43.304;24.344;2024-01-30T17:07:31;16.88;;;8.82;;
12780;SDS011;6454;43.304;24.344;2024-01-30T17:10:00;14.35;;;7.35;;
12780;SDS011;6454;43.304;24.344;2024-01-30T17:12:27;14.00;;;7.80;;
12780;SDS011;6454;43.304;24.344;2024-01-30T17:14:53;13.70;;;6.57;;
12780;SDS011;6454;43.304;24.344;2024-01-30T17:19:44;11.88;;;5.50;;
12780;SDS011;6454;43.304;24.344;2024-01-30T17:24:36;8.00;;;4.63;;
12780;SDS011;6454;43.304;24.344;2024-01-30T17:29:28;8.52;;;4.75;;
12780;SDS011;6454;43.304;24.344;2024-01-30T17:31:53;10.98;;;5.80;;
12780;SDS011;6454;43.304;24.344;2024-01-30T17:36:44;12.35;;;6.20;;
12780;SDS011;6454;43.304;24.344;2024-01-30T17:41:35;9.63;;;5.60;;
12780;SDS011;6454;43.304;24.344;2024-01-30T17:46:27;10.23;;;4.88;;
12780;SDS011;6454;43.304;24.344;2024-01-30T17:48:52;9.75;;;5.18;;
12780;SDS011;6454;43.304;24.344;2024-01-30T17:51:18;9.57;;;5.10;;
12780;SDS011;6454;43.304;24.344;2024-01-30T17:56:09;9.13;;;4.40;;
12780;SDS011;6454;43.304;24.344;2024-01-30T17:58:36;8.95;;;4.22;;
12780;SDS011;6454;43.304;24.344;2024-01-30T18:01:02;7.32;;;4.55;;
12780;SDS011;6454;43.304;24.344;2024-01-30T18:03:28;8.30;;;4.72;;
12780;SDS011;6454;43.304;24.344;2024-01-30T18:08:20;7.97;;;3.35;;
12780;SDS011;6454;43.304;24.344;2024-01-30T18:10:48;8.32;;;3.92;;
12780;SDS011;6454;43.304;24.344;2024-01-30T18:13:15;7.47;;;4.32;;
12780;SDS011;6454;43.304;24.344;2024-01-30T18:15:43;10.60;;;4.45;;
12780;SDS011;6454;43.304;24.344;2024-01-30T18:18:09;8.02;;;4.38;;